This demonstration page uses our WeatherBlox Daily Observations layout. Learn more.

36.17497, -115.13722

Hourly Observations for July 11, 2015

Temp ( °F °C ) Dew Point ( °F °C ) Humidity (%) Winds ( mph kmh ) Pressure ( in mb ) Visibility ( mi km ) Precip ( " mm )
12:53 am 00:53 Clear 81 27 39 4 23 23 Calm 29.68 1005 10 16.09344 0 0
1:53 am 01:53 Clear 81 27 39 4 23 23 Calm 29.74 1007 10 16.09344 0 0
2:53 am 02:53 Clear 79 26 41 5 26 26 Calm 29.74 1007 10 16.09344 0 0
3:53 am 03:53 Clear 73 23 43 6 33 33 NNW 5 7 29.77 1008 10 16.09344 0 0
4:53 am 04:53 Clear 73 23 45 7 36 36 Calm 29.8 1009 10 16.09344 0 0
5:53 am 05:53 Sunny 73 23 45 7 36 36 WNW 3 6 29.83 1010 10 16.09344 0 0
6:53 am 06:53 Sunny 75 24 45 7 34 34 Calm 29.8 1009 10 16.09344 0 0
7:53 am 07:53 Sunny 81 27 45 7 28 28 Calm 29.83 1010 10 16.09344 0 0
8:53 am 08:53 Sunny 82 28 43 6 25 25 SE 10 17 29.8 1009 10 16.09344 0 0
9:53 am 09:53 Sunny 86 30 37 3 18 18 SSE 13 20 29.8 1009 10 16.09344 0 0
10:53 am 10:53 Sunny 88 31 37 3 17 17 S 10 17 29.8 1009 10 16.09344 0 0
11:53 am 11:53 Sunny 90 32 37 3 16 16 SSE 15 24 29.8 1009 10 16.09344 0 0
12:53 pm 12:53 Sunny 90 32 37 3 16 16 SE 8 13 29.8 1009 10 16.09344 0 0
1:53 pm 13:53 Sunny 91 33 39 4 16 16 undefined N/A 29.74 1007 10 16.09344 0 0
2:53 pm 14:53 Sunny 93 34 39 4 15 15 S 12 19 29.74 1007 10 16.09344 0 0
3:53 pm 15:53 Sunny 95 35 37 3 13 13 SE 17 28 29.71 1006 10 16.09344 0 0
5:53 pm 17:53 Sunny 93 34 37 3 14 14 SSE 20 31 29.68 1005 10 16.09344 0 0
6:53 pm 18:53 Sunny 93 34 36 2 13 13 SSE 18 30 29.68 1005 10 16.09344 0 0
7:53 pm 19:53 Sunny 91 33 36 2 14 14 SSE 20 31 29.71 1006 10 16.09344 0 0
8:53 pm 20:53 Clear 90 32 39 4 17 17 S 14 22 29.74 1007 10 16.09344 0 0
9:53 pm 21:53 Clear 88 31 39 4 18 18 S 9 15 29.8 1009 10 16.09344 0 0
10:53 pm 22:53 Clear 86 30 37 3 18 18 S 10 17 29.8 1009 10 16.09344 0 0
11:53 pm 23:53 Clear 84 29 37 3 19 19 S 10 17 29.8 1009 10 16.09344 0 0

Powered by AerisWeather